sensor_id;sensor_type;location;lat;lon;timestamp;P1;durP1;ratioP1;P2;durP2;ratioP2
39344;SDS011;25061;51.954;6.996;2022-11-21T00:00:30;22.73;;;10.82;;
39344;SDS011;25061;51.954;6.996;2022-11-21T00:03:00;21.35;;;9.65;;
39344;SDS011;25061;51.954;6.996;2022-11-21T00:05:26;22.83;;;10.70;;
39344;SDS011;25061;51.954;6.996;2022-11-21T00:07:53;23.52;;;11.82;;
39344;SDS011;25061;51.954;6.996;2022-11-21T00:10:19;22.98;;;11.32;;
39344;SDS011;25061;51.954;6.996;2022-11-21T00:12:45;25.23;;;12.15;;
39344;SDS011;25061;51.954;6.996;2022-11-21T00:15:11;21.48;;;10.68;;
39344;SDS011;25061;51.954;6.996;2022-11-21T00:17:37;25.25;;;11.85;;
39344;SDS011;25061;51.954;6.996;2022-11-21T00:20:03;26.80;;;12.35;;
39344;SDS011;25061;51.954;6.996;2022-11-21T00:22:30;25.00;;;11.50;;
39344;SDS011;25061;51.954;6.996;2022-11-21T00:24:56;25.65;;;11.38;;
39344;SDS011;25061;51.954;6.996;2022-11-21T00:27:22;22.90;;;10.95;;
39344;SDS011;25061;51.954;6.996;2022-11-21T00:29:48;23.35;;;11.02;;
39344;SDS011;25061;51.954;6.996;2022-11-21T00:32:14;22.08;;;11.10;;
39344;SDS011;25061;51.954;6.996;2022-11-21T00:34:40;25.42;;;11.90;;
39344;SDS011;25061;51.954;6.996;2022-11-21T00:37:06;24.00;;;11.25;;
39344;SDS011;25061;51.954;6.996;2022-11-21T00:39:32;24.33;;;11.52;;
39344;SDS011;25061;51.954;6.996;2022-11-21T00:41:58;23.05;;;11.43;;
39344;SDS011;25061;51.954;6.996;2022-11-21T00:44:23;21.90;;;11.43;;
39344;SDS011;25061;51.954;6.996;2022-11-21T00:46:49;26.65;;;12.43;;
39344;SDS011;25061;51.954;6.996;2022-11-21T00:49:15;23.85;;;11.23;;
39344;SDS011;25061;51.954;6.996;2022-11-21T00:51:41;25.88;;;11.68;;
39344;SDS011;25061;51.954;6.996;2022-11-21T00:54:07;24.60;;;11.70;;
39344;SDS011;25061;51.954;6.996;2022-11-21T00:56:33;23.73;;;12.02;;
39344;SDS011;25061;51.954;6.996;2022-11-21T00:58:59;24.00;;;11.43;;
39344;SDS011;25061;51.954;6.996;2022-11-21T01:01:25;22.65;;;11.52;;
39344;SDS011;25061;51.954;6.996;2022-11-21T01:03:51;22.27;;;10.95;;
39344;SDS011;25061;51.954;6.996;2022-11-21T01:06:17;25.33;;;11.45;;
39344;SDS011;25061;51.954;6.996;2022-11-21T01:08:43;23.20;;;11.40;;
39344;SDS011;25061;51.954;6.996;2022-11-21T01:11:10;24.00;;;11.55;;
39344;SDS011;25061;51.954;6.996;2022-11-21T01:13:37;25.38;;;11.95;;
39344;SDS011;25061;51.954;6.996;2022-11-21T01:16:06;23.63;;;11.18;;
39344;SDS011;25061;51.954;6.996;2022-11-21T01:18:33;24.00;;;11.30;;
39344;SDS011;25061;51.954;6.996;2022-11-21T01:21:00;26.80;;;12.80;;
39344;SDS011;25061;51.954;6.996;2022-11-21T01:23:26;26.00;;;12.40;;
39344;SDS011;25061;51.954;6.996;2022-11-21T01:25:53;25.13;;;11.95;;
39344;SDS011;25061;51.954;6.996;2022-11-21T01:28:19;28.27;;;12.40;;
39344;SDS011;25061;51.954;6.996;2022-11-21T01:30:44;25.65;;;12.40;;
39344;SDS011;25061;51.954;6.996;2022-11-21T01:33:10;25.85;;;11.98;;
39344;SDS011;25061;51.954;6.996;2022-11-21T01:35:36;24.90;;;11.98;;
39344;SDS011;25061;51.954;6.996;2022-11-21T01:38:02;24.98;;;12.85;;
39344;SDS011;25061;51.954;6.996;2022-11-21T01:40:28;24.75;;;11.85;;
39344;SDS011;25061;51.954;6.996;2022-11-21T01:42:59;26.27;;;12.65;;
39344;SDS011;25061;51.954;6.996;2022-11-21T01:47:53;29.55;;;13.25;;
39344;SDS011;25061;51.954;6.996;2022-11-21T01:50:18;25.08;;;12.43;;
39344;SDS011;25061;51.954;6.996;2022-11-21T01:52:44;24.00;;;12.32;;
39344;SDS011;25061;51.954;6.996;2022-11-21T01:55:10;28.17;;;13.30;;
39344;SDS011;25061;51.954;6.996;2022-11-21T01:57:38;26.83;;;13.18;;
39344;SDS011;25061;51.954;6.996;2022-11-21T02:02:36;25.98;;;13.32;;
39344;SDS011;25061;51.954;6.996;2022-11-21T02:05:04;28.10;;;13.73;;
39344;SDS011;25061;51.954;6.996;2022-11-21T02:07:32;27.45;;;13.45;;
39344;SDS011;25061;51.954;6.996;2022-11-21T02:09:59;25.77;;;12.65;;
39344;SDS011;25061;51.954;6.996;2022-11-21T02:12:29;28.45;;;13.32;;
39344;SDS011;25061;51.954;6.996;2022-11-21T02:14:57;25.67;;;13.23;;
39344;SDS011;25061;51.954;6.996;2022-11-21T02:17:24;26.80;;;13.77;;
39344;SDS011;25061;51.954;6.996;2022-11-21T02:25:03;25.60;;;13.50;;
39344;SDS011;25061;51.954;6.996;2022-11-21T02:27:29;26.25;;;14.02;;
39344;SDS011;25061;51.954;6.996;2022-11-21T02:29:55;27.02;;;12.85;;
39344;SDS011;25061;51.954;6.996;2022-11-21T02:32:22;28.77;;;14.50;;
39344;SDS011;25061;51.954;6.996;2022-11-21T02:34:48;28.85;;;13.85;;
39344;SDS011;25061;51.954;6.996;2022-11-21T02:37:14;30.10;;;15.05;;
39344;SDS011;25061;51.954;6.996;2022-11-21T02:39:40;30.23;;;14.13;;
39344;SDS011;25061;51.954;6.996;2022-11-21T02:42:15;31.20;;;14.02;;
39344;SDS011;25061;51.954;6.996;2022-11-21T02:44:43;26.42;;;13.93;;
39344;SDS011;25061;51.954;6.996;2022-11-21T02:47:12;27.80;;;14.18;;
39344;SDS011;25061;51.954;6.996;2022-11-21T02:49:39;27.02;;;13.38;;
39344;SDS011;25061;51.954;6.996;2022-11-21T02:52:06;29.27;;;13.57;;
39344;SDS011;25061;51.954;6.996;2022-11-21T02:54:32;29.63;;;13.32;;
39344;SDS011;25061;51.954;6.996;2022-11-21T02:56:58;30.83;;;15.10;;
39344;SDS011;25061;51.954;6.996;2022-11-21T02:59:24;30.58;;;14.57;;
39344;SDS011;25061;51.954;6.996;2022-11-21T03:01:50;27.05;;;14.10;;
39344;SDS011;25061;51.954;6.996;2022-11-21T03:04:16;31.13;;;14.65;;
39344;SDS011;25061;51.954;6.996;2022-11-21T03:06:42;30.15;;;15.07;;
39344;SDS011;25061;51.954;6.996;2022-11-21T03:09:08;31.27;;;14.55;;
39344;SDS011;25061;51.954;6.996;2022-11-21T03:11:36;26.85;;;14.63;;
39344;SDS011;25061;51.954;6.996;2022-11-21T03:14:02;27.92;;;13.90;;
39344;SDS011;25061;51.954;6.996;2022-11-21T03:16:28;28.33;;;14.13;;
39344;SDS011;25061;51.954;6.996;2022-11-21T03:18:55;27.33;;;13.48;;
39344;SDS011;25061;51.954;6.996;2022-11-21T03:21:21;28.20;;;14.18;;
39344;SDS011;25061;51.954;6.996;2022-11-21T03:23:47;29.40;;;15.00;;
39344;SDS011;25061;51.954;6.996;2022-11-21T03:26:13;26.58;;;13.57;;
39344;SDS011;25061;51.954;6.996;2022-11-21T03:28:40;28.08;;;14.07;;
39344;SDS011;25061;51.954;6.996;2022-11-21T03:31:06;30.70;;;14.63;;
39344;SDS011;25061;51.954;6.996;2022-11-21T03:33:32;29.65;;;14.02;;
39344;SDS011;25061;51.954;6.996;2022-11-21T03:35:58;30.30;;;14.70;;
39344;SDS011;25061;51.954;6.996;2022-11-21T03:38:24;33.03;;;13.85;;
39344;SDS011;25061;51.954;6.996;2022-11-21T03:40:50;27.65;;;14.43;;
39344;SDS011;25061;51.954;6.996;2022-11-21T03:43:16;28.83;;;14.63;;
39344;SDS011;25061;51.954;6.996;2022-11-21T03:45:44;27.27;;;14.07;;
39344;SDS011;25061;51.954;6.996;2022-11-21T03:48:12;29.55;;;14.65;;
39344;SDS011;25061;51.954;6.996;2022-11-21T03:50:38;28.95;;;13.48;;
39344;SDS011;25061;51.954;6.996;2022-11-21T03:53:06;31.27;;;15.25;;
39344;SDS011;25061;51.954;6.996;2022-11-21T03:55:32;28.35;;;13.70;;
39344;SDS011;25061;51.954;6.996;2022-11-21T03:57:58;32.25;;;15.82;;
39344;SDS011;25061;51.954;6.996;2022-11-21T04:00:24;32.25;;;16.15;;
39344;SDS011;25061;51.954;6.996;2022-11-21T04:02:50;31.73;;;15.98;;
39344;SDS011;25061;51.954;6.996;2022-11-21T04:05:16;32.60;;;14.95;;
39344;SDS011;25061;51.954;6.996;2022-11-21T04:07:44;31.65;;;14.63;;
39344;SDS011;25061;51.954;6.996;2022-11-21T04:10:10;32.72;;;15.68;;
39344;SDS011;25061;51.954;6.996;2022-11-21T04:12:36;32.67;;;16.00;;
39344;SDS011;25061;51.954;6.996;2022-11-21T04:15:02;32.72;;;15.30;;
39344;SDS011;25061;51.954;6.996;2022-11-21T04:17:28;31.52;;;15.18;;
39344;SDS011;25061;51.954;6.996;2022-11-21T04:19:55;32.95;;;15.98;;
39344;SDS011;25061;51.954;6.996;2022-11-21T04:22:21;32.88;;;16.33;;
39344;SDS011;25061;51.954;6.996;2022-11-21T04:24:47;36.20;;;16.08;;
39344;SDS011;25061;51.954;6.996;2022-11-21T04:27:13;33.97;;;15.63;;
39344;SDS011;25061;51.954;6.996;2022-11-21T04:29:39;32.72;;;15.68;;
39344;SDS011;25061;51.954;6.996;2022-11-21T04:32:05;34.78;;;14.57;;
39344;SDS011;25061;51.954;6.996;2022-11-21T04:34:31;30.52;;;14.73;;
39344;SDS011;25061;51.954;6.996;2022-11-21T04:36:57;30.15;;;14.32;;
39344;SDS011;25061;51.954;6.996;2022-11-21T04:39:23;28.40;;;14.23;;
39344;SDS011;25061;51.954;6.996;2022-11-21T04:41:49;28.02;;;14.65;;
39344;SDS011;25061;51.954;6.996;2022-11-21T04:44:15;27.63;;;13.45;;
39344;SDS011;25061;51.954;6.996;2022-11-21T04:46:41;28.52;;;13.85;;
39344;SDS011;25061;51.954;6.996;2022-11-21T04:49:07;34.53;;;15.13;;
39344;SDS011;25061;51.954;6.996;2022-11-21T04:51:32;34.88;;;15.52;;
39344;SDS011;25061;51.954;6.996;2022-11-21T04:53:58;35.78;;;13.98;;
39344;SDS011;25061;51.954;6.996;2022-11-21T04:56:24;36.90;;;13.95;;
39344;SDS011;25061;51.954;6.996;2022-11-21T04:58:51;33.88;;;13.77;;
39344;SDS011;25061;51.954;6.996;2022-11-21T05:01:17;42.33;;;13.80;;
39344;SDS011;25061;51.954;6.996;2022-11-21T05:03:43;39.97;;;14.65;;
39344;SDS011;25061;51.954;6.996;2022-11-21T05:06:09;31.00;;;15.55;;
39344;SDS011;25061;51.954;6.996;2022-11-21T05:08:35;33.05;;;13.88;;
39344;SDS011;25061;51.954;6.996;2022-11-21T05:11:01;34.35;;;14.98;;
39344;SDS011;25061;51.954;6.996;2022-11-21T05:13:45;31.42;;;14.13;;
39344;SDS011;25061;51.954;6.996;2022-11-21T05:16:11;40.03;;;13.88;;
39344;SDS011;25061;51.954;6.996;2022-11-21T05:18:37;39.35;;;14.15;;
39344;SDS011;25061;51.954;6.996;2022-11-21T05:21:03;37.88;;;14.35;;
39344;SDS011;25061;51.954;6.996;2022-11-21T05:23:29;60.58;;;17.67;;
39344;SDS011;25061;51.954;6.996;2022-11-21T05:25:55;33.15;;;14.35;;
39344;SDS011;25061;51.954;6.996;2022-11-21T05:28:21;31.98;;;14.02;;
39344;SDS011;25061;51.954;6.996;2022-11-21T05:30:47;52.35;;;15.00;;
39344;SDS011;25061;51.954;6.996;2022-11-21T05:33:13;39.47;;;15.27;;
39344;SDS011;25061;51.954;6.996;2022-11-21T05:35:39;41.25;;;15.07;;
39344;SDS011;25061;51.954;6.996;2022-11-21T05:38:05;41.10;;;15.25;;
39344;SDS011;25061;51.954;6.996;2022-11-21T05:40:31;45.42;;;17.27;;
39344;SDS011;25061;51.954;6.996;2022-11-21T05:42:57;55.38;;;17.33;;
39344;SDS011;25061;51.954;6.996;2022-11-21T05:45:41;45.75;;;16.73;;
39344;SDS011;25061;51.954;6.996;2022-11-21T05:48:07;55.47;;;16.95;;
39344;SDS011;25061;51.954;6.996;2022-11-21T05:50:34;49.05;;;17.55;;
39344;SDS011;25061;51.954;6.996;2022-11-21T05:53:00;49.88;;;17.02;;
39344;SDS011;25061;51.954;6.996;2022-11-21T05:55:27;58.20;;;15.75;;
39344;SDS011;25061;51.954;6.996;2022-11-21T05:57:53;45.00;;;15.63;;
39344;SDS011;25061;51.954;6.996;2022-11-21T06:00:22;41.33;;;15.25;;
39344;SDS011;25061;51.954;6.996;2022-11-21T06:02:48;40.17;;;15.60;;
39344;SDS011;25061;51.954;6.996;2022-11-21T06:05:32;37.42;;;14.85;;
39344;SDS011;25061;51.954;6.996;2022-11-21T06:07:58;41.15;;;15.50;;
39344;SDS011;25061;51.954;6.996;2022-11-21T06:10:24;56.92;;;15.38;;
39344;SDS011;25061;51.954;6.996;2022-11-21T06:12:50;66.45;;;16.38;;
39344;SDS011;25061;51.954;6.996;2022-11-21T06:15:16;44.80;;;13.63;;
39344;SDS011;25061;51.954;6.996;2022-11-21T06:17:42;56.28;;;15.35;;
39344;SDS011;25061;51.954;6.996;2022-11-21T06:20:08;76.72;;;16.10;;
39344;SDS011;25061;51.954;6.996;2022-11-21T06:22:34;119.40;;;18.52;;
39344;SDS011;25061;51.954;6.996;2022-11-21T06:25:00;76.55;;;15.75;;
39344;SDS011;25061;51.954;6.996;2022-11-21T06:27:27;68.97;;;15.57;;
39344;SDS011;25061;51.954;6.996;2022-11-21T06:29:53;129.95;;;19.13;;
39344;SDS011;25061;51.954;6.996;2022-11-21T06:32:19;94.20;;;16.48;;
39344;SDS011;25061;51.954;6.996;2022-11-21T06:34:45;110.30;;;17.75;;
39344;SDS011;25061;51.954;6.996;2022-11-21T06:37:11;123.97;;;17.83;;
39344;SDS011;25061;51.954;6.996;2022-11-21T06:39:37;96.85;;;14.50;;
39344;SDS011;25061;51.954;6.996;2022-11-21T06:42:03;85.20;;;16.45;;
39344;SDS011;25061;51.954;6.996;2022-11-21T06:44:29;114.78;;;18.60;;
39344;SDS011;25061;51.954;6.996;2022-11-21T06:46:55;65.95;;;15.85;;
39344;SDS011;25061;51.954;6.996;2022-11-21T06:49:21;59.30;;;12.95;;
39344;SDS011;25061;51.954;6.996;2022-11-21T06:51:47;84.78;;;15.93;;
39344;SDS011;25061;51.954;6.996;2022-11-21T06:54:13;86.00;;;16.23;;
39344;SDS011;25061;51.954;6.996;2022-11-21T06:56:39;94.55;;;17.38;;
39344;SDS011;25061;51.954;6.996;2022-11-21T06:59:05;96.43;;;17.17;;
39344;SDS011;25061;51.954;6.996;2022-11-21T07:01:31;113.40;;;12.90;;
39344;SDS011;25061;51.954;6.996;2022-11-21T07:03:57;127.15;;;15.93;;
39344;SDS011;25061;51.954;6.996;2022-11-21T07:06:23;129.32;;;16.10;;
39344;SDS011;25061;51.954;6.996;2022-11-21T07:08:52;113.95;;;16.60;;
39344;SDS011;25061;51.954;6.996;2022-11-21T07:11:18;93.03;;;12.95;;
39344;SDS011;25061;51.954;6.996;2022-11-21T07:13:44;125.18;;;15.10;;
39344;SDS011;25061;51.954;6.996;2022-11-21T07:16:11;150.32;;;16.35;;
39344;SDS011;25061;51.954;6.996;2022-11-21T07:18:40;107.65;;;12.13;;
39344;SDS011;25061;51.954;6.996;2022-11-21T07:21:06;70.90;;;10.38;;
39344;SDS011;25061;51.954;6.996;2022-11-21T07:23:33;166.90;;;16.95;;
39344;SDS011;25061;51.954;6.996;2022-11-21T07:25:59;140.00;;;16.60;;
39344;SDS011;25061;51.954;6.996;2022-11-21T07:28:26;122.20;;;14.32;;
39344;SDS011;25061;51.954;6.996;2022-11-21T07:30:54;102.97;;;14.13;;
39344;SDS011;25061;51.954;6.996;2022-11-21T07:33:21;88.43;;;12.77;;
39344;SDS011;25061;51.954;6.996;2022-11-21T07:35:47;125.43;;;13.68;;
39344;SDS011;25061;51.954;6.996;2022-11-21T07:38:12;127.38;;;16.90;;
39344;SDS011;25061;51.954;6.996;2022-11-21T07:40:38;159.50;;;15.48;;
39344;SDS011;25061;51.954;6.996;2022-11-21T07:43:06;77.25;;;12.00;;
39344;SDS011;25061;51.954;6.996;2022-11-21T07:45:32;65.90;;;12.68;;
39344;SDS011;25061;51.954;6.996;2022-11-21T07:47:59;91.35;;;13.90;;
39344;SDS011;25061;51.954;6.996;2022-11-21T07:50:25;84.70;;;14.70;;
39344;SDS011;25061;51.954;6.996;2022-11-21T07:52:58;81.05;;;15.45;;
39344;SDS011;25061;51.954;6.996;2022-11-21T07:55:24;87.32;;;11.43;;
39344;SDS011;25061;51.954;6.996;2022-11-21T07:58:23;139.70;;;14.60;;
39344;SDS011;25061;51.954;6.996;2022-11-21T08:00:42;51.40;;;10.77;;
39344;SDS011;25061;51.954;6.996;2022-11-21T08:03:09;100.63;;;12.45;;
39344;SDS011;25061;51.954;6.996;2022-11-21T08:05:42;66.85;;;10.27;;
39344;SDS011;25061;51.954;6.996;2022-11-21T08:08:09;63.60;;;10.75;;
39344;SDS011;25061;51.954;6.996;2022-11-21T08:10:38;86.85;;;11.63;;
39344;SDS011;25061;51.954;6.996;2022-11-21T08:13:04;41.30;;;9.65;;
39344;SDS011;25061;51.954;6.996;2022-11-21T08:15:30;39.28;;;8.50;;
39344;SDS011;25061;51.954;6.996;2022-11-21T08:17:56;35.97;;;8.77;;
39344;SDS011;25061;51.954;6.996;2022-11-21T08:20:22;39.45;;;8.43;;
39344;SDS011;25061;51.954;6.996;2022-11-21T08:22:48;36.88;;;8.57;;
39344;SDS011;25061;51.954;6.996;2022-11-21T08:25:14;32.15;;;7.82;;
39344;SDS011;25061;51.954;6.996;2022-11-21T08:27:40;33.95;;;9.57;;
39344;SDS011;25061;51.954;6.996;2022-11-21T08:30:07;49.75;;;9.30;;
39344;SDS011;25061;51.954;6.996;2022-11-21T08:32:33;31.98;;;8.70;;
39344;SDS011;25061;51.954;6.996;2022-11-21T08:34:59;42.60;;;9.52;;
39344;SDS011;25061;51.954;6.996;2022-11-21T08:37:26;46.42;;;9.07;;
39344;SDS011;25061;51.954;6.996;2022-11-21T08:39:53;55.97;;;11.57;;
39344;SDS011;25061;51.954;6.996;2022-11-21T08:42:19;40.83;;;10.30;;
39344;SDS011;25061;51.954;6.996;2022-11-21T08:44:45;34.70;;;9.52;;
39344;SDS011;25061;51.954;6.996;2022-11-21T08:47:11;61.28;;;11.27;;
39344;SDS011;25061;51.954;6.996;2022-11-21T08:49:37;69.18;;;12.60;;
39344;SDS011;25061;51.954;6.996;2022-11-21T08:52:03;38.60;;;9.55;;
39344;SDS011;25061;51.954;6.996;2022-11-21T08:54:29;39.72;;;10.55;;
39344;SDS011;25061;51.954;6.996;2022-11-21T08:56:54;99.57;;;13.95;;
39344;SDS011;25061;51.954;6.996;2022-11-21T08:59:20;45.05;;;13.10;;
39344;SDS011;25061;51.954;6.996;2022-11-21T09:01:46;46.50;;;12.18;;
39344;SDS011;25061;51.954;6.996;2022-11-21T09:04:12;49.63;;;11.80;;
39344;SDS011;25061;51.954;6.996;2022-11-21T09:06:38;33.00;;;10.70;;
39344;SDS011;25061;51.954;6.996;2022-11-21T09:09:04;30.52;;;9.30;;
39344;SDS011;25061;51.954;6.996;2022-11-21T09:11:30;28.30;;;11.02;;
39344;SDS011;25061;51.954;6.996;2022-11-21T09:13:57;33.10;;;10.45;;
39344;SDS011;25061;51.954;6.996;2022-11-21T09:16:42;89.55;;;13.02;;
39344;SDS011;25061;51.954;6.996;2022-11-21T09:19:27;39.88;;;11.27;;
39344;SDS011;25061;51.954;6.996;2022-11-21T09:21:53;31.27;;;9.93;;
39344;SDS011;25061;51.954;6.996;2022-11-21T09:24:19;34.70;;;11.48;;
39344;SDS011;25061;51.954;6.996;2022-11-21T09:26:45;33.55;;;11.98;;
39344;SDS011;25061;51.954;6.996;2022-11-21T09:29:11;35.00;;;11.75;;
39344;SDS011;25061;51.954;6.996;2022-11-21T09:31:39;34.17;;;10.82;;
39344;SDS011;25061;51.954;6.996;2022-11-21T09:34:06;32.47;;;12.40;;
39344;SDS011;25061;51.954;6.996;2022-11-21T09:36:32;36.60;;;13.60;;
39344;SDS011;25061;51.954;6.996;2022-11-21T09:38:58;33.30;;;11.77;;
39344;SDS011;25061;51.954;6.996;2022-11-21T09:41:31;33.88;;;12.20;;
39344;SDS011;25061;51.954;6.996;2022-11-21T09:47:04;34.38;;;12.88;;
39344;SDS011;25061;51.954;6.996;2022-11-21T09:49:32;50.83;;;12.25;;
39344;SDS011;25061;51.954;6.996;2022-11-21T09:52:01;37.97;;;13.77;;
39344;SDS011;25061;51.954;6.996;2022-11-21T09:54:31;40.17;;;14.38;;
39344;SDS011;25061;51.954;6.996;2022-11-21T09:56:58;42.42;;;12.63;;
39344;SDS011;25061;51.954;6.996;2022-11-21T09:59:28;35.22;;;11.98;;
39344;SDS011;25061;51.954;6.996;2022-11-21T10:01:57;58.40;;;14.30;;
39344;SDS011;25061;51.954;6.996;2022-11-21T10:04:24;37.80;;;13.05;;
39344;SDS011;25061;51.954;6.996;2022-11-21T10:12:01;35.50;;;11.52;;
39344;SDS011;25061;51.954;6.996;2022-11-21T10:14:57;30.30;;;10.57;;
39344;SDS011;25061;51.954;6.996;2022-11-21T10:17:38;36.78;;;13.80;;
39344;SDS011;25061;51.954;6.996;2022-11-21T10:22:49;35.88;;;12.80;;
39344;SDS011;25061;51.954;6.996;2022-11-21T10:25:26;40.80;;;14.75;;
39344;SDS011;25061;51.954;6.996;2022-11-21T10:30:43;31.98;;;11.93;;
39344;SDS011;25061;51.954;6.996;2022-11-21T10:33:12;29.63;;;11.25;;
39344;SDS011;25061;51.954;6.996;2022-11-21T10:35:43;32.58;;;12.23;;
39344;SDS011;25061;51.954;6.996;2022-11-21T10:38:16;36.35;;;13.50;;
39344;SDS011;25061;51.954;6.996;2022-11-21T10:40:44;35.58;;;14.20;;
39344;SDS011;25061;51.954;6.996;2022-11-21T10:46:05;43.55;;;15.35;;
39344;SDS011;25061;51.954;6.996;2022-11-21T10:48:31;38.65;;;13.80;;
39344;SDS011;25061;51.954;6.996;2022-11-21T10:51:13;47.67;;;14.80;;
39344;SDS011;25061;51.954;6.996;2022-11-21T10:53:41;36.45;;;13.77;;
39344;SDS011;25061;51.954;6.996;2022-11-21T10:56:26;47.15;;;15.88;;
39344;SDS011;25061;51.954;6.996;2022-11-21T10:58:54;42.90;;;12.60;;
39344;SDS011;25061;51.954;6.996;2022-11-21T11:06:38;38.65;;;13.40;;
39344;SDS011;25061;51.954;6.996;2022-11-21T11:09:05;50.22;;;15.05;;
39344;SDS011;25061;51.954;6.996;2022-11-21T11:11:31;47.20;;;15.50;;
39344;SDS011;25061;51.954;6.996;2022-11-21T11:14:04;49.72;;;16.13;;
39344;SDS011;25061;51.954;6.996;2022-11-21T11:16:31;52.05;;;17.83;;
39344;SDS011;25061;51.954;6.996;2022-11-21T11:19:33;55.15;;;16.20;;
39344;SDS011;25061;51.954;6.996;2022-11-21T11:21:51;62.65;;;18.45;;
39344;SDS011;25061;51.954;6.996;2022-11-21T11:24:21;50.88;;;15.95;;
39344;SDS011;25061;51.954;6.996;2022-11-21T11:29:18;66.32;;;19.63;;
39344;SDS011;25061;51.954;6.996;2022-11-21T11:34:19;60.88;;;18.30;;
39344;SDS011;25061;51.954;6.996;2022-11-21T11:48:07;73.60;;;19.48;;
39344;SDS011;25061;51.954;6.996;2022-11-21T11:50:51;76.95;;;19.95;;
39344;SDS011;25061;51.954;6.996;2022-11-21T11:56:25;69.72;;;18.80;;
39344;SDS011;25061;51.954;6.996;2022-11-21T12:06:23;59.65;;;17.45;;
39344;SDS011;25061;51.954;6.996;2022-11-21T12:08:54;69.22;;;20.05;;
39344;SDS011;25061;51.954;6.996;2022-11-21T12:11:24;82.00;;;20.92;;
39344;SDS011;25061;51.954;6.996;2022-11-21T12:14:12;78.57;;;19.55;;
39344;SDS011;25061;51.954;6.996;2022-11-21T12:16:59;74.95;;;22.58;;
39344;SDS011;25061;51.954;6.996;2022-11-21T12:19:26;77.88;;;21.50;;
39344;SDS011;25061;51.954;6.996;2022-11-21T12:21:52;75.22;;;22.73;;
39344;SDS011;25061;51.954;6.996;2022-11-21T12:24:18;75.10;;;21.85;;
39344;SDS011;25061;51.954;6.996;2022-11-21T12:26:55;73.72;;;22.98;;
39344;SDS011;25061;51.954;6.996;2022-11-21T12:29:42;81.45;;;21.15;;
39344;SDS011;25061;51.954;6.996;2022-11-21T12:35:03;76.70;;;23.98;;
39344;SDS011;25061;51.954;6.996;2022-11-21T12:45:23;71.18;;;20.95;;
39344;SDS011;25061;51.954;6.996;2022-11-21T12:53:26;77.68;;;25.00;;
39344;SDS011;25061;51.954;6.996;2022-11-21T12:56:13;72.15;;;21.90;;
39344;SDS011;25061;51.954;6.996;2022-11-21T12:58:43;70.30;;;20.58;;
39344;SDS011;25061;51.954;6.996;2022-11-21T13:06:33;69.22;;;22.75;;
39344;SDS011;25061;51.954;6.996;2022-11-21T13:09:01;79.78;;;24.50;;
39344;SDS011;25061;51.954;6.996;2022-11-21T13:11:32;80.97;;;25.92;;
39344;SDS011;25061;51.954;6.996;2022-11-21T13:14:28;70.93;;;22.42;;
39344;SDS011;25061;51.954;6.996;2022-11-21T13:17:08;74.00;;;22.33;;
39344;SDS011;25061;51.954;6.996;2022-11-21T13:24:54;76.68;;;22.88;;
39344;SDS011;25061;51.954;6.996;2022-11-21T13:27:36;69.13;;;22.98;;
39344;SDS011;25061;51.954;6.996;2022-11-21T13:32:35;71.95;;;25.38;;
39344;SDS011;25061;51.954;6.996;2022-11-21T13:35:02;75.43;;;25.67;;
39344;SDS011;25061;51.954;6.996;2022-11-21T13:40:40;70.63;;;22.23;;
39344;SDS011;25061;51.954;6.996;2022-11-21T13:43:28;69.95;;;23.30;;
39344;SDS011;25061;51.954;6.996;2022-11-21T13:45:54;72.25;;;24.48;;
39344;SDS011;25061;51.954;6.996;2022-11-21T13:53:39;78.43;;;24.27;;
39344;SDS011;25061;51.954;6.996;2022-11-21T13:58:37;70.45;;;22.35;;
39344;SDS011;25061;51.954;6.996;2022-11-21T14:01:18;65.05;;;23.10;;
39344;SDS011;25061;51.954;6.996;2022-11-21T14:06:19;54.42;;;21.83;;
39344;SDS011;25061;51.954;6.996;2022-11-21T14:11:35;60.88;;;19.73;;
39344;SDS011;25061;51.954;6.996;2022-11-21T14:14:04;64.82;;;24.65;;
39344;SDS011;25061;51.954;6.996;2022-11-21T14:16:33;66.10;;;21.77;;
39344;SDS011;25061;51.954;6.996;2022-11-21T14:19:00;69.63;;;23.60;;
39344;SDS011;25061;51.954;6.996;2022-11-21T14:21:28;65.80;;;20.00;;
39344;SDS011;25061;51.954;6.996;2022-11-21T14:23:55;66.47;;;22.17;;
39344;SDS011;25061;51.954;6.996;2022-11-21T14:26:22;67.85;;;23.05;;
39344;SDS011;25061;51.954;6.996;2022-11-21T14:28:49;67.53;;;22.88;;
39344;SDS011;25061;51.954;6.996;2022-11-21T14:31:15;59.97;;;21.48;;
39344;SDS011;25061;51.954;6.996;2022-11-21T14:33:42;65.63;;;22.15;;
39344;SDS011;25061;51.954;6.996;2022-11-21T14:36:15;68.97;;;19.80;;
39344;SDS011;25061;51.954;6.996;2022-11-21T14:44:34;58.78;;;19.20;;
39344;SDS011;25061;51.954;6.996;2022-11-21T14:46:35;60.15;;;18.80;;
39344;SDS011;25061;51.954;6.996;2022-11-21T14:51:37;69.88;;;21.92;;
39344;SDS011;25061;51.954;6.996;2022-11-21T14:54:03;64.53;;;21.40;;
39344;SDS011;25061;51.954;6.996;2022-11-21T14:56:30;70.32;;;22.00;;
39344;SDS011;25061;51.954;6.996;2022-11-21T14:58:57;72.43;;;22.27;;
39344;SDS011;25061;51.954;6.996;2022-11-21T15:01:24;71.57;;;22.55;;
39344;SDS011;25061;51.954;6.996;2022-11-21T15:03:55;68.95;;;22.00;;
39344;SDS011;25061;51.954;6.996;2022-11-21T15:06:21;73.80;;;22.27;;
39344;SDS011;25061;51.954;6.996;2022-11-21T15:08:47;73.85;;;20.42;;
39344;SDS011;25061;51.954;6.996;2022-11-21T15:11:14;73.35;;;20.02;;
39344;SDS011;25061;51.954;6.996;2022-11-21T15:13:41;81.28;;;18.42;;
39344;SDS011;25061;51.954;6.996;2022-11-21T15:16:09;83.13;;;20.48;;
39344;SDS011;25061;51.954;6.996;2022-11-21T15:18:35;77.55;;;20.05;;
39344;SDS011;25061;51.954;6.996;2022-11-21T15:21:02;66.55;;;19.20;;
39344;SDS011;25061;51.954;6.996;2022-11-21T15:23:37;61.67;;;19.35;;
39344;SDS011;25061;51.954;6.996;2022-11-21T15:26:23;57.28;;;20.25;;
39344;SDS011;25061;51.954;6.996;2022-11-21T15:28:54;60.83;;;20.55;;
39344;SDS011;25061;51.954;6.996;2022-11-21T15:31:20;75.30;;;23.70;;
39344;SDS011;25061;51.954;6.996;2022-11-21T15:36:19;66.95;;;22.33;;
39344;SDS011;25061;51.954;6.996;2022-11-21T15:38:49;58.45;;;21.45;;
39344;SDS011;25061;51.954;6.996;2022-11-21T15:43:50;53.50;;;19.67;;
39344;SDS011;25061;51.954;6.996;2022-11-21T15:48:44;61.40;;;20.92;;
39344;SDS011;25061;51.954;6.996;2022-11-21T15:51:10;76.57;;;23.90;;
39344;SDS011;25061;51.954;6.996;2022-11-21T15:53:36;67.97;;;20.48;;
39344;SDS011;25061;51.954;6.996;2022-11-21T15:56:02;66.43;;;22.13;;
39344;SDS011;25061;51.954;6.996;2022-11-21T15:58:28;69.55;;;20.05;;
39344;SDS011;25061;51.954;6.996;2022-11-21T16:00:54;69.05;;;22.27;;
39344;SDS011;25061;51.954;6.996;2022-11-21T16:03:20;73.57;;;22.77;;
39344;SDS011;25061;51.954;6.996;2022-11-21T16:08:17;82.07;;;20.80;;
39344;SDS011;25061;51.954;6.996;2022-11-21T16:10:43;85.90;;;19.80;;
39344;SDS011;25061;51.954;6.996;2022-11-21T16:13:10;71.13;;;20.25;;
39344;SDS011;25061;51.954;6.996;2022-11-21T16:15:36;83.72;;;21.30;;
39344;SDS011;25061;51.954;6.996;2022-11-21T16:18:02;70.38;;;22.25;;
39344;SDS011;25061;51.954;6.996;2022-11-21T16:20:28;78.00;;;19.75;;
39344;SDS011;25061;51.954;6.996;2022-11-21T16:22:54;53.30;;;19.08;;
39344;SDS011;25061;51.954;6.996;2022-11-21T16:25:20;83.35;;;21.17;;
39344;SDS011;25061;51.954;6.996;2022-11-21T16:27:46;66.22;;;19.75;;